sensor_id;sensor_type;location;lat;lon;timestamp;temperature;humidity
52869;DHT22;39100;53.480;6.158;2022-12-10T00:01:47;1.20;99.90
52869;DHT22;39100;53.480;6.158;2022-12-10T00:04:14;1.20;99.90
52869;DHT22;39100;53.480;6.158;2022-12-10T00:06:41;1.20;99.90
52869;DHT22;39100;53.480;6.158;2022-12-10T00:09:13;1.20;99.90
52869;DHT22;39100;53.480;6.158;2022-12-10T00:11:39;1.20;99.90
52869;DHT22;39100;53.480;6.158;2022-12-10T00:14:06;1.30;99.90
52869;DHT22;39100;53.480;6.158;2022-12-10T00:16:34;1.30;99.90
52869;DHT22;39100;53.480;6.158;2022-12-10T00:19:00;1.30;99.90
52869;DHT22;39100;53.480;6.158;2022-12-10T00:21:30;1.40;99.90
52869;DHT22;39100;53.480;6.158;2022-12-10T00:23:58;1.40;99.90
52869;DHT22;39100;53.480;6.158;2022-12-10T00:26:29;1.30;99.90
52869;DHT22;39100;53.480;6.158;2022-12-10T00:28:56;1.30;99.90
52869;DHT22;39100;53.480;6.158;2022-12-10T00:31:27;1.40;99.90
52869;DHT22;39100;53.480;6.158;2022-12-10T00:33:54;1.40;99.90
52869;DHT22;39100;53.480;6.158;2022-12-10T00:36:23;1.40;99.90
52869;DHT22;39100;53.480;6.158;2022-12-10T00:38:50;1.40;99.90
52869;DHT22;39100;53.480;6.158;2022-12-10T00:41:16;1.40;99.90
52869;DHT22;39100;53.480;6.158;2022-12-10T00:43:42;1.30;99.90
52869;DHT22;39100;53.480;6.158;2022-12-10T00:46:08;1.40;99.90
52869;DHT22;39100;53.480;6.158;2022-12-10T00:48:34;1.40;99.90
52869;DHT22;39100;53.480;6.158;2022-12-10T00:53:32;1.30;99.90
52869;DHT22;39100;53.480;6.158;2022-12-10T00:55:58;1.40;99.90
52869;DHT22;39100;53.480;6.158;2022-12-10T00:58:27;1.40;99.90
52869;DHT22;39100;53.480;6.158;2022-12-10T01:00:53;1.40;99.90
52869;DHT22;39100;53.480;6.158;2022-12-10T01:03:18;1.30;99.90
52869;DHT22;39100;53.480;6.158;2022-12-10T01:05:44;1.30;99.90
52869;DHT22;39100;53.480;6.158;2022-12-10T01:08:10;1.30;99.90
52869;DHT22;39100;53.480;6.158;2022-12-10T01:10:35;1.30;99.90
52869;DHT22;39100;53.480;6.158;2022-12-10T01:13:01;1.30;99.90
52869;DHT22;39100;53.480;6.158;2022-12-10T01:15:27;1.30;99.90
52869;DHT22;39100;53.480;6.158;2022-12-10T01:17:52;1.30;99.90
52869;DHT22;39100;53.480;6.158;2022-12-10T01:20:18;1.30;99.90
52869;DHT22;39100;53.480;6.158;2022-12-10T01:22:44;1.30;99.90
52869;DHT22;39100;53.480;6.158;2022-12-10T01:25:09;1.40;99.90
52869;DHT22;39100;53.480;6.158;2022-12-10T01:27:35;1.40;99.90
52869;DHT22;39100;53.480;6.158;2022-12-10T01:30:00;1.50;99.90
52869;DHT22;39100;53.480;6.158;2022-12-10T01:32:26;1.40;99.90
52869;DHT22;39100;53.480;6.158;2022-12-10T01:34:51;1.50;99.90
52869;DHT22;39100;53.480;6.158;2022-12-10T01:37:17;1.50;99.90
52869;DHT22;39100;53.480;6.158;2022-12-10T01:39:42;1.40;99.90
52869;DHT22;39100;53.480;6.158;2022-12-10T01:42:12;1.50;99.90
52869;DHT22;39100;53.480;6.158;2022-12-10T01:47:08;1.50;99.90
52869;DHT22;39100;53.480;6.158;2022-12-10T01:49:39;1.50;99.90
52869;DHT22;39100;53.480;6.158;2022-12-10T01:52:07;1.50;99.90
52869;DHT22;39100;53.480;6.158;2022-12-10T01:54:36;1.60;99.90
52869;DHT22;39100;53.480;6.158;2022-12-10T01:57:09;1.60;99.90
52869;DHT22;39100;53.480;6.158;2022-12-10T01:59:37;1.60;99.90
52869;DHT22;39100;53.480;6.158;2022-12-10T02:02:34;1.60;99.90
52869;DHT22;39100;53.480;6.158;2022-12-10T02:07:47;1.50;99.90
52869;DHT22;39100;53.480;6.158;2022-12-10T02:10:30;1.60;99.90
52869;DHT22;39100;53.480;6.158;2022-12-10T02:16:04;1.60;99.90
52869;DHT22;39100;53.480;6.158;2022-12-10T02:18:45;1.60;99.90
52869;DHT22;39100;53.480;6.158;2022-12-10T02:21:22;1.50;99.90
52869;DHT22;39100;53.480;6.158;2022-12-10T02:23:56;1.60;99.90
52869;DHT22;39100;53.480;6.158;2022-12-10T02:29:15;1.60;99.90
52869;DHT22;39100;53.480;6.158;2022-12-10T02:31:47;1.70;99.90
52869;DHT22;39100;53.480;6.158;2022-12-10T02:34:15;1.60;99.90
52869;DHT22;39100;53.480;6.158;2022-12-10T02:36:44;1.60;99.90
52869;DHT22;39100;53.480;6.158;2022-12-10T02:39:15;1.60;99.90
52869;DHT22;39100;53.480;6.158;2022-12-10T02:41:52;1.60;99.90
52869;DHT22;39100;53.480;6.158;2022-12-10T02:44:20;1.60;99.90
52869;DHT22;39100;53.480;6.158;2022-12-10T02:46:50;1.60;99.90
52869;DHT22;39100;53.480;6.158;2022-12-10T02:49:17;1.60;99.90
52869;DHT22;39100;53.480;6.158;2022-12-10T02:51:43;1.50;99.90
52869;DHT22;39100;53.480;6.158;2022-12-10T02:54:38;1.50;99.90
52869;DHT22;39100;53.480;6.158;2022-12-10T03:00:12;1.50;99.90
52869;DHT22;39100;53.480;6.158;2022-12-10T03:08:31;1.40;99.90
52869;DHT22;39100;53.480;6.158;2022-12-10T03:11:00;1.50;99.90
52869;DHT22;39100;53.480;6.158;2022-12-10T03:13:39;1.40;99.90
52869;DHT22;39100;53.480;6.158;2022-12-10T03:16:06;1.50;99.90
52869;DHT22;39100;53.480;6.158;2022-12-10T03:18:34;1.50;99.90
52869;DHT22;39100;53.480;6.158;2022-12-10T03:21:04;1.50;99.90
52869;DHT22;39100;53.480;6.158;2022-12-10T03:23:33;1.40;99.90
52869;DHT22;39100;53.480;6.158;2022-12-10T03:26:00;1.40;99.90
52869;DHT22;39100;53.480;6.158;2022-12-10T03:28:27;1.40;99.90
52869;DHT22;39100;53.480;6.158;2022-12-10T03:30:57;1.40;99.90
52869;DHT22;39100;53.480;6.158;2022-12-10T03:33:23;1.30;99.90
52869;DHT22;39100;53.480;6.158;2022-12-10T03:35:49;1.30;99.90
52869;DHT22;39100;53.480;6.158;2022-12-10T03:38:16;1.30;99.90
52869;DHT22;39100;53.480;6.158;2022-12-10T03:40:41;1.40;99.90
52869;DHT22;39100;53.480;6.158;2022-12-10T03:43:07;1.40;99.90
52869;DHT22;39100;53.480;6.158;2022-12-10T03:45:33;1.40;99.90
52869;DHT22;39100;53.480;6.158;2022-12-10T03:47:58;1.40;99.90
52869;DHT22;39100;53.480;6.158;2022-12-10T03:50:24;1.40;99.90
52869;DHT22;39100;53.480;6.158;2022-12-10T03:52:49;1.50;99.90
52869;DHT22;39100;53.480;6.158;2022-12-10T03:55:15;1.40;99.90
52869;DHT22;39100;53.480;6.158;2022-12-10T03:57:41;2.20;99.90
52869;DHT22;39100;53.480;6.158;2022-12-10T04:00:07;1.40;99.90
52869;DHT22;39100;53.480;6.158;2022-12-10T04:02:33;1.40;99.90
52869;DHT22;39100;53.480;6.158;2022-12-10T04:04:59;1.40;99.90
52869;DHT22;39100;53.480;6.158;2022-12-10T04:07:24;1.40;99.90
52869;DHT22;39100;53.480;6.158;2022-12-10T04:09:50;1.40;99.90
52869;DHT22;39100;53.480;6.158;2022-12-10T04:12:15;1.40;99.90
52869;DHT22;39100;53.480;6.158;2022-12-10T04:14:41;1.40;99.90
52869;DHT22;39100;53.480;6.158;2022-12-10T04:17:25;1.30;99.90
52869;DHT22;39100;53.480;6.158;2022-12-10T04:19:51;1.30;99.90
52869;DHT22;39100;53.480;6.158;2022-12-10T04:22:16;1.30;99.90
52869;DHT22;39100;53.480;6.158;2022-12-10T04:25:00;1.30;99.90
52869;DHT22;39100;53.480;6.158;2022-12-10T04:27:45;1.30;99.90
52869;DHT22;39100;53.480;6.158;2022-12-10T04:30:11;1.30;99.90
52869;DHT22;39100;53.480;6.158;2022-12-10T04:32:37;1.20;99.90
52869;DHT22;39100;53.480;6.158;2022-12-10T04:35:03;1.30;99.90
52869;DHT22;39100;53.480;6.158;2022-12-10T04:37:29;1.20;99.90
52869;DHT22;39100;53.480;6.158;2022-12-10T04:39:54;1.20;99.90
52869;DHT22;39100;53.480;6.158;2022-12-10T04:42:21;1.20;99.90
52869;DHT22;39100;53.480;6.158;2022-12-10T04:44:47;1.20;99.90
52869;DHT22;39100;53.480;6.158;2022-12-10T04:47:13;1.20;99.90
52869;DHT22;39100;53.480;6.158;2022-12-10T04:49:39;1.10;99.90
52869;DHT22;39100;53.480;6.158;2022-12-10T04:52:06;1.10;99.90
52869;DHT22;39100;53.480;6.158;2022-12-10T04:54:32;1.10;99.90
52869;DHT22;39100;53.480;6.158;2022-12-10T04:56:58;1.00;99.90
52869;DHT22;39100;53.480;6.158;2022-12-10T04:59:24;1.00;99.90
52869;DHT22;39100;53.480;6.158;2022-12-10T05:01:49;1.00;99.90
52869;DHT22;39100;53.480;6.158;2022-12-10T05:04:16;1.10;99.90
52869;DHT22;39100;53.480;6.158;2022-12-10T05:06:43;1.00;99.90
52869;DHT22;39100;53.480;6.158;2022-12-10T05:09:11;1.10;99.90
52869;DHT22;39100;53.480;6.158;2022-12-10T05:11:37;1.10;99.90
52869;DHT22;39100;53.480;6.158;2022-12-10T05:14:03;1.10;99.90
52869;DHT22;39100;53.480;6.158;2022-12-10T05:16:31;1.10;99.90
52869;DHT22;39100;53.480;6.158;2022-12-10T05:18:58;1.20;99.90
52869;DHT22;39100;53.480;6.158;2022-12-10T05:21:25;1.10;99.90
52869;DHT22;39100;53.480;6.158;2022-12-10T05:24:12;1.10;99.90
52869;DHT22;39100;53.480;6.158;2022-12-10T05:26:38;1.10;99.90
52869;DHT22;39100;53.480;6.158;2022-12-10T05:29:04;1.10;99.90
52869;DHT22;39100;53.480;6.158;2022-12-10T05:31:30;1.10;99.90
52869;DHT22;39100;53.480;6.158;2022-12-10T05:33:57;1.10;99.90
52869;DHT22;39100;53.480;6.158;2022-12-10T05:36:25;1.10;99.90
52869;DHT22;39100;53.480;6.158;2022-12-10T05:38:52;1.10;99.90
52869;DHT22;39100;53.480;6.158;2022-12-10T05:41:21;1.20;99.90
52869;DHT22;39100;53.480;6.158;2022-12-10T05:43:48;1.20;99.90
52869;DHT22;39100;53.480;6.158;2022-12-10T05:46:15;1.20;99.90
52869;DHT22;39100;53.480;6.158;2022-12-10T05:48:41;1.10;99.90
52869;DHT22;39100;53.480;6.158;2022-12-10T05:51:18;1.10;99.90
52869;DHT22;39100;53.480;6.158;2022-12-10T05:53:45;1.10;99.90
52869;DHT22;39100;53.480;6.158;2022-12-10T05:56:15;1.10;99.90
52869;DHT22;39100;53.480;6.158;2022-12-10T05:58:43;1.10;99.90
52869;DHT22;39100;53.480;6.158;2022-12-10T06:01:14;1.10;99.90
52869;DHT22;39100;53.480;6.158;2022-12-10T06:03:40;1.10;99.90
52869;DHT22;39100;53.480;6.158;2022-12-10T06:06:06;1.10;99.90
52869;DHT22;39100;53.480;6.158;2022-12-10T06:08:33;1.20;99.90
52869;DHT22;39100;53.480;6.158;2022-12-10T06:11:03;1.20;99.90
52869;DHT22;39100;53.480;6.158;2022-12-10T06:13:29;1.20;99.90
52869;DHT22;39100;53.480;6.158;2022-12-10T06:15:54;1.20;99.90
52869;DHT22;39100;53.480;6.158;2022-12-10T06:18:20;1.20;99.90
52869;DHT22;39100;53.480;6.158;2022-12-10T06:20:46;1.20;99.90
52869;DHT22;39100;53.480;6.158;2022-12-10T06:23:12;1.20;99.90
52869;DHT22;39100;53.480;6.158;2022-12-10T06:25:38;1.20;99.90
52869;DHT22;39100;53.480;6.158;2022-12-10T06:28:04;1.30;99.90
52869;DHT22;39100;53.480;6.158;2022-12-10T06:30:30;1.30;99.90
52869;DHT22;39100;53.480;6.158;2022-12-10T06:32:55;1.20;99.90
52869;DHT22;39100;53.480;6.158;2022-12-10T06:35:21;1.20;99.90
52869;DHT22;39100;53.480;6.158;2022-12-10T06:37:48;1.20;99.90
52869;DHT22;39100;53.480;6.158;2022-12-10T06:40:13;1.20;99.90
52869;DHT22;39100;53.480;6.158;2022-12-10T06:42:39;1.30;99.90
52869;DHT22;39100;53.480;6.158;2022-12-10T06:45:05;1.30;99.90
52869;DHT22;39100;53.480;6.158;2022-12-10T06:47:31;1.30;99.90
52869;DHT22;39100;53.480;6.158;2022-12-10T06:49:56;1.30;99.90
52869;DHT22;39100;53.480;6.158;2022-12-10T06:52:22;1.30;99.90
52869;DHT22;39100;53.480;6.158;2022-12-10T06:54:47;1.30;99.90
52869;DHT22;39100;53.480;6.158;2022-12-10T06:57:13;1.30;99.90
52869;DHT22;39100;53.480;6.158;2022-12-10T06:59:39;1.40;99.90
52869;DHT22;39100;53.480;6.158;2022-12-10T07:02:04;1.40;99.90
52869;DHT22;39100;53.480;6.158;2022-12-10T07:04:30;1.50;99.90
52869;DHT22;39100;53.480;6.158;2022-12-10T07:06:56;1.50;99.90
52869;DHT22;39100;53.480;6.158;2022-12-10T07:09:21;1.50;99.90
52869;DHT22;39100;53.480;6.158;2022-12-10T07:11:47;1.50;99.90
52869;DHT22;39100;53.480;6.158;2022-12-10T07:14:14;1.50;99.90
52869;DHT22;39100;53.480;6.158;2022-12-10T07:16:41;1.50;99.90
52869;DHT22;39100;53.480;6.158;2022-12-10T07:19:09;1.60;99.90
52869;DHT22;39100;53.480;6.158;2022-12-10T07:21:36;1.50;99.90
52869;DHT22;39100;53.480;6.158;2022-12-10T07:24:08;1.60;99.90
52869;DHT22;39100;53.480;6.158;2022-12-10T07:26:36;1.60;99.90
52869;DHT22;39100;53.480;6.158;2022-12-10T07:29:03;1.60;99.90
52869;DHT22;39100;53.480;6.158;2022-12-10T07:31:29;1.60;99.90
52869;DHT22;39100;53.480;6.158;2022-12-10T07:33:58;1.50;99.90
52869;DHT22;39100;53.480;6.158;2022-12-10T07:36:24;1.60;99.90
52869;DHT22;39100;53.480;6.158;2022-12-10T07:38:51;1.50;99.90
52869;DHT22;39100;53.480;6.158;2022-12-10T07:41:17;1.50;99.90
52869;DHT22;39100;53.480;6.158;2022-12-10T07:43:44;1.50;99.90
52869;DHT22;39100;53.480;6.158;2022-12-10T07:48:40;1.50;99.90
52869;DHT22;39100;53.480;6.158;2022-12-10T07:51:07;1.50;99.90
52869;DHT22;39100;53.480;6.158;2022-12-10T07:53:33;1.50;99.90
52869;DHT22;39100;53.480;6.158;2022-12-10T07:55:59;1.50;99.90
52869;DHT22;39100;53.480;6.158;2022-12-10T07:58:25;1.50;99.90
52869;DHT22;39100;53.480;6.158;2022-12-10T08:00:51;1.60;99.90
52869;DHT22;39100;53.480;6.158;2022-12-10T08:03:16;1.60;99.90
52869;DHT22;39100;53.480;6.158;2022-12-10T08:05:42;1.60;99.90
52869;DHT22;39100;53.480;6.158;2022-12-10T08:08:08;1.60;99.90
52869;DHT22;39100;53.480;6.158;2022-12-10T08:10:38;1.60;99.90
52869;DHT22;39100;53.480;6.158;2022-12-10T08:13:04;1.60;99.90
52869;DHT22;39100;53.480;6.158;2022-12-10T08:15:30;1.60;99.90
52869;DHT22;39100;53.480;6.158;2022-12-10T08:17:56;1.70;99.90
52869;DHT22;39100;53.480;6.158;2022-12-10T08:20:22;1.70;99.90
52869;DHT22;39100;53.480;6.158;2022-12-10T08:22:48;1.70;99.90
52869;DHT22;39100;53.480;6.158;2022-12-10T08:25:14;1.80;99.90
52869;DHT22;39100;53.480;6.158;2022-12-10T08:27:40;1.80;99.90
52869;DHT22;39100;53.480;6.158;2022-12-10T08:30:06;1.80;99.90
52869;DHT22;39100;53.480;6.158;2022-12-10T08:32:32;1.90;99.90
52869;DHT22;39100;53.480;6.158;2022-12-10T08:34:57;1.80;99.90
52869;DHT22;39100;53.480;6.158;2022-12-10T08:37:23;1.90;99.90
52869;DHT22;39100;53.480;6.158;2022-12-10T08:39:48;1.90;99.90
52869;DHT22;39100;53.480;6.158;2022-12-10T08:42:14;1.90;99.90
52869;DHT22;39100;53.480;6.158;2022-12-10T08:44:40;2.00;99.90
52869;DHT22;39100;53.480;6.158;2022-12-10T08:47:05;2.00;99.90
52869;DHT22;39100;53.480;6.158;2022-12-10T08:49:31;2.00;99.90
52869;DHT22;39100;53.480;6.158;2022-12-10T08:51:57;2.00;99.90
52869;DHT22;39100;53.480;6.158;2022-12-10T08:54:22;2.00;99.90
52869;DHT22;39100;53.480;6.158;2022-12-10T08:56:48;2.00;99.90
52869;DHT22;39100;53.480;6.158;2022-12-10T08:59:13;2.00;99.90
52869;DHT22;39100;53.480;6.158;2022-12-10T09:01:39;2.00;99.90
52869;DHT22;39100;53.480;6.158;2022-12-10T09:04:05;2.00;99.90
52869;DHT22;39100;53.480;6.158;2022-12-10T09:06:30;2.00;99.90
52869;DHT22;39100;53.480;6.158;2022-12-10T09:08:56;2.00;99.90
52869;DHT22;39100;53.480;6.158;2022-12-10T09:11:25;2.00;99.90
52869;DHT22;39100;53.480;6.158;2022-12-10T09:13:51;2.00;99.90
52869;DHT22;39100;53.480;6.158;2022-12-10T09:16:17;2.10;99.90
52869;DHT22;39100;53.480;6.158;2022-12-10T09:18:43;2.10;99.90
52869;DHT22;39100;53.480;6.158;2022-12-10T09:21:11;2.00;99.90
52869;DHT22;39100;53.480;6.158;2022-12-10T09:23:38;2.00;99.90
52869;DHT22;39100;53.480;6.158;2022-12-10T09:26:08;2.00;99.90
52869;DHT22;39100;53.480;6.158;2022-12-10T09:28:36;2.00;99.90
52869;DHT22;39100;53.480;6.158;2022-12-10T09:31:05;2.00;99.90
52869;DHT22;39100;53.480;6.158;2022-12-10T09:33:32;2.10;99.90
52869;DHT22;39100;53.480;6.158;2022-12-10T09:35:57;2.00;99.90
52869;DHT22;39100;53.480;6.158;2022-12-10T09:38:23;2.00;99.90
52869;DHT22;39100;53.480;6.158;2022-12-10T09:41:04;2.00;99.90
52869;DHT22;39100;53.480;6.158;2022-12-10T09:46:50;2.10;99.90
52869;DHT22;39100;53.480;6.158;2022-12-10T09:49:33;2.20;99.90
52869;DHT22;39100;53.480;6.158;2022-12-10T09:52:05;2.20;99.90
52869;DHT22;39100;53.480;6.158;2022-12-10T09:54:33;2.30;99.90
52869;DHT22;39100;53.480;6.158;2022-12-10T09:57:00;2.30;99.90
52869;DHT22;39100;53.480;6.158;2022-12-10T09:59:29;2.90;99.90
52869;DHT22;39100;53.480;6.158;2022-12-10T10:02:22;2.40;99.90
52869;DHT22;39100;53.480;6.158;2022-12-10T10:04:49;2.50;99.90
52869;DHT22;39100;53.480;6.158;2022-12-10T10:07:24;2.50;99.90
52869;DHT22;39100;53.480;6.158;2022-12-10T10:09:53;2.50;99.90
52869;DHT22;39100;53.480;6.158;2022-12-10T10:12:20;2.50;99.90
52869;DHT22;39100;53.480;6.158;2022-12-10T10:14:46;2.50;99.90
52869;DHT22;39100;53.480;6.158;2022-12-10T10:17:21;2.50;99.90
52869;DHT22;39100;53.480;6.158;2022-12-10T10:19:49;2.40;99.90
52869;DHT22;39100;53.480;6.158;2022-12-10T10:22:15;2.40;99.90
52869;DHT22;39100;53.480;6.158;2022-12-10T10:24:43;2.50;99.90
52869;DHT22;39100;53.480;6.158;2022-12-10T10:27:14;2.50;99.90
52869;DHT22;39100;53.480;6.158;2022-12-10T10:29:45;2.50;99.90
52869;DHT22;39100;53.480;6.158;2022-12-10T10:32:18;2.50;99.90
52869;DHT22;39100;53.480;6.158;2022-12-10T10:34:45;2.50;99.90
52869;DHT22;39100;53.480;6.158;2022-12-10T10:37:21;2.50;99.90
52869;DHT22;39100;53.480;6.158;2022-12-10T10:39:49;2.50;99.90
52869;DHT22;39100;53.480;6.158;2022-12-10T10:45:31;2.50;99.90
52869;DHT22;39100;53.480;6.158;2022-12-10T10:48:18;2.50;99.90
52869;DHT22;39100;53.480;6.158;2022-12-10T10:50:54;2.50;99.90
52869;DHT22;39100;53.480;6.158;2022-12-10T10:53:29;2.50;99.90
52869;DHT22;39100;53.480;6.158;2022-12-10T10:55:59;2.50;99.90
52869;DHT22;39100;53.480;6.158;2022-12-10T10:58:25;2.50;99.90
52869;DHT22;39100;53.480;6.158;2022-12-10T11:00:58;2.40;99.90
52869;DHT22;39100;53.480;6.158;2022-12-10T11:03:25;2.40;99.90
52869;DHT22;39100;53.480;6.158;2022-12-10T11:05:51;2.40;99.90
52869;DHT22;39100;53.480;6.158;2022-12-10T11:08:18;2.30;99.90
52869;DHT22;39100;53.480;6.158;2022-12-10T11:10:51;2.30;99.90
52869;DHT22;39100;53.480;6.158;2022-12-10T11:15:45;2.30;99.90
52869;DHT22;39100;53.480;6.158;2022-12-10T11:18:39;2.20;99.90
52869;DHT22;39100;53.480;6.158;2022-12-10T11:23:43;2.20;99.90
52869;DHT22;39100;53.480;6.158;2022-12-10T11:26:42;2.20;99.90
52869;DHT22;39100;53.480;6.158;2022-12-10T11:35:09;2.20;99.90
52869;DHT22;39100;53.480;6.158;2022-12-10T11:40:50;2.20;99.90
52869;DHT22;39100;53.480;6.158;2022-12-10T11:43:32;2.20;99.90
52869;DHT22;39100;53.480;6.158;2022-12-10T11:51:45;2.20;99.90
52869;DHT22;39100;53.480;6.158;2022-12-10T12:00:00;2.10;99.90
52869;DHT22;39100;53.480;6.158;2022-12-10T12:02:44;2.20;99.90
52869;DHT22;39100;53.480;6.158;2022-12-10T12:17:20;2.20;99.90
52869;DHT22;39100;53.480;6.158;2022-12-10T12:19:51;2.20;99.90
52869;DHT22;39100;53.480;6.158;2022-12-10T12:22:26;2.20;99.90
52869;DHT22;39100;53.480;6.158;2022-12-10T12:25:01;2.20;99.90
52869;DHT22;39100;53.480;6.158;2022-12-10T12:27:33;2.20;99.90
52869;DHT22;39100;53.480;6.158;2022-12-10T12:30:13;2.30;99.90
52869;DHT22;39100;53.480;6.158;2022-12-10T12:32:45;2.30;99.90
52869;DHT22;39100;53.480;6.158;2022-12-10T12:35:20;2.20;99.90
52869;DHT22;39100;53.480;6.158;2022-12-10T12:37:59;2.30;99.90
52869;DHT22;39100;53.480;6.158;2022-12-10T12:40:29;2.20;99.90
52869;DHT22;39100;53.480;6.158;2022-12-10T12:45:47;2.30;99.90
52869;DHT22;39100;53.480;6.158;2022-12-10T12:51:17;2.40;99.90
52869;DHT22;39100;53.480;6.158;2022-12-10T12:53:44;2.40;99.90
52869;DHT22;39100;53.480;6.158;2022-12-10T12:56:16;2.40;99.90
52869;DHT22;39100;53.480;6.158;2022-12-10T13:01:59;2.30;99.90
52869;DHT22;39100;53.480;6.158;2022-12-10T13:04:27;2.40;99.90
52869;DHT22;39100;53.480;6.158;2022-12-10T13:09:52;2.30;99.90
52869;DHT22;39100;53.480;6.158;2022-12-10T13:12:30;2.40;99.90
52869;DHT22;39100;53.480;6.158;2022-12-10T13:17:35;2.40;99.90
52869;DHT22;39100;53.480;6.158;2022-12-10T13:23:26;2.40;99.90
52869;DHT22;39100;53.480;6.158;2022-12-10T13:28:29;2.40;99.90
52869;DHT22;39100;53.480;6.158;2022-12-10T13:31:32;2.40;99.90
52869;DHT22;39100;53.480;6.158;2022-12-10T13:36:37;2.40;99.90
52869;DHT22;39100;53.480;6.158;2022-12-10T13:45:03;2.30;99.90
52869;DHT22;39100;53.480;6.158;2022-12-10T13:47:43;2.30;99.90
52869;DHT22;39100;53.480;6.158;2022-12-10T14:06:45;2.40;99.90
52869;DHT22;39100;53.480;6.158;2022-12-10T14:09:27;2.40;99.90
52869;DHT22;39100;53.480;6.158;2022-12-10T14:12:00;2.40;99.90
52869;DHT22;39100;53.480;6.158;2022-12-10T14:14:47;2.40;99.90
52869;DHT22;39100;53.480;6.158;2022-12-10T14:17:20;2.30;99.90
52869;DHT22;39100;53.480;6.158;2022-12-10T14:19:48;2.40;99.90
52869;DHT22;39100;53.480;6.158;2022-12-10T14:22:18;2.40;99.90
52869;DHT22;39100;53.480;6.158;2022-12-10T14:24:48;2.40;99.90
52869;DHT22;39100;53.480;6.158;2022-12-10T14:27:15;2.30;99.90
52869;DHT22;39100;53.480;6.158;2022-12-10T14:29:50;2.40;99.90
52869;DHT22;39100;53.480;6.158;2022-12-10T14:32:53;2.40;99.90
52869;DHT22;39100;53.480;6.158;2022-12-10T14:35:16;2.40;99.90
52869;DHT22;39100;53.480;6.158;2022-12-10T14:37:45;2.50;99.90
52869;DHT22;39100;53.480;6.158;2022-12-10T14:40:23;2.50;99.90
52869;DHT22;39100;53.480;6.158;2022-12-10T14:42:52;2.50;99.90
52869;DHT22;39100;53.480;6.158;2022-12-10T14:45:20;2.50;99.90
52869;DHT22;39100;53.480;6.158;2022-12-10T14:47:47;2.50;99.90
52869;DHT22;39100;53.480;6.158;2022-12-10T14:50:15;2.50;99.90
52869;DHT22;39100;53.480;6.158;2022-12-10T14:52:43;2.50;99.90
52869;DHT22;39100;53.480;6.158;2022-12-10T14:55:13;2.40;99.90
52869;DHT22;39100;53.480;6.158;2022-12-10T14:57:43;2.50;99.90
52869;DHT22;39100;53.480;6.158;2022-12-10T15:00:14;2.50;99.90
52869;DHT22;39100;53.480;6.158;2022-12-10T15:02:42;2.40;99.90
52869;DHT22;39100;53.480;6.158;2022-12-10T15:05:17;2.40;99.90
52869;DHT22;39100;53.480;6.158;2022-12-10T15:07:49;2.50;99.90
52869;DHT22;39100;53.480;6.158;2022-12-10T15:10:32;2.50;99.90
52869;DHT22;39100;53.480;6.158;2022-12-10T15:12:59;2.50;99.90
52869;DHT22;39100;53.480;6.158;2022-12-10T15:15:33;2.40;99.90
52869;DHT22;39100;53.480;6.158;2022-12-10T15:18:15;2.40;99.90
52869;DHT22;39100;53.480;6.158;2022-12-10T15:23:20;2.30;99.90
52869;DHT22;39100;53.480;6.158;2022-12-10T15:25:51;2.20;99.90
52869;DHT22;39100;53.480;6.158;2022-12-10T15:28:47;2.20;99.90
52869;DHT22;39100;53.480;6.158;2022-12-10T15:34:00;2.10;99.90
52869;DHT22;39100;53.480;6.158;2022-12-10T15:41:55;2.10;99.90
52869;DHT22;39100;53.480;6.158;2022-12-10T15:49:32;2.00;99.90
52869;DHT22;39100;53.480;6.158;2022-12-10T15:51:58;2.00;99.90
52869;DHT22;39100;53.480;6.158;2022-12-10T15:56:55;1.90;99.90
52869;DHT22;39100;53.480;6.158;2022-12-10T15:59:21;1.90;99.90
52869;DHT22;39100;53.480;6.158;2022-12-10T16:01:46;1.80;99.90
52869;DHT22;39100;53.480;6.158;2022-12-10T16:04:12;1.90;99.90
52869;DHT22;39100;53.480;6.158;2022-12-10T16:06:39;1.80;99.90
52869;DHT22;39100;53.480;6.158;2022-12-10T16:09:04;1.80;99.90
52869;DHT22;39100;53.480;6.158;2022-12-10T16:11:31;1.80;99.90
52869;DHT22;39100;53.480;6.158;2022-12-10T16:13:56;1.80;99.90
52869;DHT22;39100;53.480;6.158;2022-12-10T16:16:23;1.80;99.90
52869;DHT22;39100;53.480;6.158;2022-12-10T16:18:49;1.70;99.90
52869;DHT22;39100;53.480;6.158;2022-12-10T16:21:14;1.70;99.90
52869;DHT22;39100;53.480;6.158;2022-12-10T16:23:40;1.80;99.90
52869;DHT22;39100;53.480;6.158;2022-12-10T16:26:14;1.80;99.90
52869;DHT22;39100;53.480;6.158;2022-12-10T16:28:40;1.80;99.90
52869;DHT22;39100;53.480;6.158;2022-12-10T16:31:11;1.80;99.90
52869;DHT22;39100;53.480;6.158;2022-12-10T16:33:37;1.80;99.90
52869;DHT22;39100;53.480;6.158;2022-12-10T16:36:03;1.80;99.90
52869;DHT22;39100;53.480;6.158;2022-12-10T16:38:28;1.80;99.90
52869;DHT22;39100;53.480;6.158;2022-12-10T16:40:54;1.80;99.90
52869;DHT22;39100;53.480;6.158;2022-12-10T16:43:22;1.80;99.90
52869;DHT22;39100;53.480;6.158;2022-12-10T16:45:49;1.80;99.90
52869;DHT22;39100;53.480;6.158;2022-12-10T16:48:15;1.90;99.90
52869;DHT22;39100;53.480;6.158;2022-12-10T16:50:41;1.90;99.90
52869;DHT22;39100;53.480;6.158;2022-12-10T16:53:36;1.80;99.90
52869;DHT22;39100;53.480;6.158;2022-12-10T16:56:04;1.80;99.90
52869;DHT22;39100;53.480;6.158;2022-12-10T16:58:30;1.80;99.90
52869;DHT22;39100;53.480;6.158;2022-12-10T17:00:55;1.80;99.90
52869;DHT22;39100;53.480;6.158;2022-12-10T17:03:24;1.80;99.90
52869;DHT22;39100;53.480;6.158;2022-12-10T17:05:55;1.80;99.90
52869;DHT22;39100;53.480;6.158;2022-12-10T17:08:21;1.80;99.90
52869;DHT22;39100;53.480;6.158;2022-12-10T17:10:48;1.80;99.90
52869;DHT22;39100;53.480;6.158;2022-12-10T17:13:33;1.70;99.90
52869;DHT22;39100;53.480;6.158;2022-12-10T17:15:59;1.70;99.90
52869;DHT22;39100;53.480;6.158;2022-12-10T17:18:25;1.70;99.90
52869;DHT22;39100;53.480;6.158;2022-12-10T17:20:51;1.70;99.90
52869;DHT22;39100;53.480;6.158;2022-12-10T17:23:17;1.80;99.90
52869;DHT22;39100;53.480;6.158;2022-12-10T17:25:43;1.80;99.90
52869;DHT22;39100;53.480;6.158;2022-12-10T17:28:15;1.80;99.90
52869;DHT22;39100;53.480;6.158;2022-12-10T17:30:41;1.80;99.90
52869;DHT22;39100;53.480;6.158;2022-12-10T17:33:12;1.80;99.90
52869;DHT22;39100;53.480;6.158;2022-12-10T17:35:40;1.80;99.90
52869;DHT22;39100;53.480;6.158;2022-12-10T17:38:14;1.80;99.90
52869;DHT22;39100;53.480;6.158;2022-12-10T17:40:40;1.80;99.90
52869;DHT22;39100;53.480;6.158;2022-12-10T17:43:05;1.80;99.90
52869;DHT22;39100;53.480;6.158;2022-12-10T17:45:31;1.80;99.90
52869;DHT22;39100;53.480;6.158;2022-12-10T17:47:57;1.80;99.90
52869;DHT22;39100;53.480;6.158;2022-12-10T17:50:36;1.70;99.90
52869;DHT22;39100;53.480;6.158;2022-12-10T17:53:06;1.80;99.90
52869;DHT22;39100;53.480;6.158;2022-12-10T17:55:36;1.70;99.90
52869;DHT22;39100;53.480;6.158;2022-12-10T17:58:02;1.70;99.90
52869;DHT22;39100;53.480;6.158;2022-12-10T18:00:31;1.60;99.90
52869;DHT22;39100;53.480;6.158;2022-12-10T18:02:57;1.70;99.90
52869;DHT22;39100;53.480;6.158;2022-12-10T18:05:23;1.60;99.90
52869;DHT22;39100;53.480;6.158;2022-12-10T18:07:48;1.70;99.90
52869;DHT22;39100;53.480;6.158;2022-12-10T18:10:21;1.70;99.90